Time;durP1;ratioP1;P1;durP2;ratioP2;P2;SDS_P1;SDS_P2;PMS_P1;PMS_P2;Temp;Humidity;BMP_temperature;BMP_pressure;BME280_temperature;BME280_humidity;BME280_pressure;Samples;Min_cycle;Max_cycle;Signal;HPM_P1;HPM_P2
2024/01/19 00:00:21;;;;;;;7.53;5.07;;;;;;;;;;5081910;28;20023;-81
2024/01/19 00:02:47;;;;;;;6.97;4.25;;;;;;;;;;5078815;28;20392;-81
2024/01/19 00:05:13;;;;;;;9.45;4.97;;;;;;;;;;5075219;28;20021;-82
2024/01/19 00:07:39;;;;;;;11.15;5.55;;;;;;;;;;5071778;28;20029;-82
2024/01/19 00:10:06;;;;;;;9.15;4.78;;;;;;;;;;5080767;28;20033;-82
2024/01/19 00:12:35;;;;;;;9.88;4.53;;;;;;;;;;5067802;28;20396;-80
2024/01/19 00:15:02;;;;;;;8.55;4.68;;;;;;;;;;5081391;28;20020;-81
2024/01/19 00:17:29;;;;;;;7.70;4.25;;;;;;;;;;5077528;28;20372;-81
2024/01/19 00:19:55;;;;;;;7.97;4.25;;;;;;;;;;5085882;28;20058;-81
2024/01/19 00:22:21;;;;;;;7.38;5.38;;;;;;;;;;5072611;28;20491;-79
2024/01/19 00:24:47;;;;;;;8.50;4.80;;;;;;;;;;5081560;28;20446;-80
2024/01/19 00:27:13;;;;;;;6.07;4.15;;;;;;;;;;5087464;28;20020;-80
2024/01/19 00:29:41;;;;;;;7.60;4.25;;;;;;;;;;5097963;28;20471;-80
2024/01/19 00:32:07;;;;;;;11.50;6.30;;;;;;;;;;5084799;28;20180;-81
2024/01/19 00:34:33;;;;;;;10.40;6.10;;;;;;;;;;5083057;28;20039;-81
2024/01/19 00:36:59;;;;;;;9.50;6.10;;;;;;;;;;5068597;28;20028;-81
2024/01/19 00:39:25;;;;;;;8.25;5.65;;;;;;;;;;5081332;28;20206;-80
2024/01/19 00:41:51;;;;;;;8.55;5.20;;;;;;;;;;5082433;28;20093;-80
2024/01/19 00:44:17;;;;;;;8.52;5.22;;;;;;;;;;5085198;28;20033;-81
2024/01/19 00:46:43;;;;;;;8.63;5.20;;;;;;;;;;5084969;28;20028;-81
2024/01/19 00:49:10;;;;;;;8.98;5.18;;;;;;;;;;5068955;28;20334;-81
2024/01/19 00:51:36;;;;;;;7.55;4.80;;;;;;;;;;5071883;28;20447;-81
2024/01/19 00:54:02;;;;;;;14.77;5.70;;;;;;;;;;5072929;28;20043;-80
2024/01/19 00:56:28;;;;;;;10.15;5.97;;;;;;;;;;5078968;28;20021;-81
2024/01/19 00:58:54;;;;;;;10.25;5.15;;;;;;;;;;5075889;28;20036;-81
2024/01/19 01:01:20;;;;;;;11.95;5.97;;;;;;;;;;5084065;28;20023;-80
2024/01/19 01:03:48;;;;;;;9.57;5.18;;;;;;;;;;5086229;28;20128;-81
2024/01/19 01:06:14;;;;;;;7.22;4.53;;;;;;;;;;5086816;28;20399;-80
2024/01/19 01:08:40;;;;;;;8.60;4.10;;;;;;;;;;5085029;28;20043;-79
2024/01/19 01:11:06;;;;;;;4.65;3.17;;;;;;;;;;5084024;28;20017;-81
2024/01/19 01:13:33;;;;;;;7.35;4.55;;;;;;;;;;5082594;28;20025;-79
2024/01/19 01:15:59;;;;;;;5.65;3.80;;;;;;;;;;5073177;28;20041;-81
2024/01/19 01:18:25;;;;;;;5.15;3.38;;;;;;;;;;5086800;28;20052;-79
2024/01/19 01:20:51;;;;;;;6.97;3.88;;;;;;;;;;5092090;28;20035;-81
2024/01/19 01:23:18;;;;;;;6.70;3.28;;;;;;;;;;5082004;28;21119;-80
2024/01/19 01:25:44;;;;;;;5.32;2.90;;;;;;;;;;5069707;28;20104;-80
2024/01/19 01:28:10;;;;;;;6.93;3.50;;;;;;;;;;5077156;28;20032;-81
2024/01/19 01:30:37;;;;;;;5.75;3.22;;;;;;;;;;5086120;28;20399;-80
2024/01/19 01:33:04;;;;;;;7.13;4.30;;;;;;;;;;5078622;28;20101;-81
2024/01/19 01:35:30;;;;;;;6.70;4.35;;;;;;;;;;5084075;28;20020;-81
2024/01/19 01:37:56;;;;;;;7.97;4.80;;;;;;;;;;5083266;28;20028;-81
2024/01/19 01:40:22;;;;;;;5.78;4.15;;;;;;;;;;5079919;28;20020;-81
2024/01/19 01:42:48;;;;;;;8.50;4.93;;;;;;;;;;5070763;28;20044;-81
2024/01/19 01:45:14;;;;;;;7.40;4.65;;;;;;;;;;5082096;28;20035;-81
2024/01/19 01:47:40;;;;;;;9.10;4.65;;;;;;;;;;5078932;28;20034;-80
2024/01/19 01:50:07;;;;;;;8.75;4.20;;;;;;;;;;5073578;28;20198;-82
2024/01/19 01:52:33;;;;;;;9.45;4.22;;;;;;;;;;5075716;28;20036;-79
2024/01/19 01:54:59;;;;;;;7.25;4.43;;;;;;;;;;5084862;28;20016;-79
2024/01/19 01:57:26;;;;;;;10.43;4.82;;;;;;;;;;5075456;28;20027;-81
2024/01/19 01:59:54;;;;;;;8.32;4.43;;;;;;;;;;5086721;28;20073;-80
2024/01/19 02:02:21;;;;;;;7.13;4.70;;;;;;;;;;5086509;28;20016;-80
2024/01/19 02:04:47;;;;;;;10.82;4.05;;;;;;;;;;5083727;28;20432;-80
2024/01/19 02:07:13;;;;;;;5.88;3.67;;;;;;;;;;5084477;28;20048;-81
2024/01/19 02:09:39;;;;;;;4.88;3.55;;;;;;;;;;5086108;28;20025;-80
2024/01/19 02:12:05;;;;;;;9.77;3.58;;;;;;;;;;5088342;28;20036;-80
2024/01/19 02:14:31;;;;;;;5.40;3.13;;;;;;;;;;5078026;28;20027;-79
2024/01/19 02:16:57;;;;;;;6.80;2.90;;;;;;;;;;5082383;28;20076;-78
2024/01/19 02:19:23;;;;;;;4.60;2.90;;;;;;;;;;5079425;28;20021;-78
2024/01/19 02:21:49;;;;;;;4.85;3.03;;;;;;;;;;5080733;28;20029;-78
2024/01/19 02:24:16;;;;;;;4.10;2.90;;;;;;;;;;5078586;28;20033;-79
2024/01/19 02:26:42;;;;;;;5.10;3.70;;;;;;;;;;5081534;28;20028;-79
2024/01/19 02:29:08;;;;;;;6.10;3.38;;;;;;;;;;5091934;28;20092;-79
2024/01/19 02:31:34;;;;;;;9.40;3.25;;;;;;;;;;5081614;28;20089;-80
2024/01/19 02:34:01;;;;;;;8.25;3.28;;;;;;;;;;5079332;28;20040;-80
2024/01/19 02:36:27;;;;;;;4.88;3.00;;;;;;;;;;5080820;28;20032;-81
2024/01/19 02:38:55;;;;;;;5.05;3.15;;;;;;;;;;5080862;28;20072;-79
2024/01/19 02:41:21;;;;;;;12.32;4.40;;;;;;;;;;5091489;28;20363;-80
2024/01/19 02:43:47;;;;;;;6.07;3.22;;;;;;;;;;5087871;28;20044;-80
2024/01/19 02:46:14;;;;;;;4.95;3.42;;;;;;;;;;5085765;28;20060;-81
2024/01/19 02:48:41;;;;;;;8.90;3.55;;;;;;;;;;5097108;28;20033;-79
2024/01/19 02:51:07;;;;;;;7.80;3.55;;;;;;;;;;5104473;28;20076;-78
2024/01/19 02:53:33;;;;;;;4.32;2.95;;;;;;;;;;5096286;28;20021;-78
2024/01/19 02:56:00;;;;;;;6.85;3.15;;;;;;;;;;5080027;28;20013;-78
2024/01/19 02:58:26;;;;;;;6.30;4.03;;;;;;;;;;5088201;28;20024;-78
2024/01/19 03:00:54;;;;;;;9.98;4.38;;;;;;;;;;5097407;28;20040;-78
2024/01/19 03:03:20;;;;;;;6.18;2.95;;;;;;;;;;5107268;28;20062;-77
2024/01/19 03:05:46;;;;;;;7.63;4.13;;;;;;;;;;5087514;28;20032;-77
2024/01/19 03:08:12;;;;;;;6.25;3.58;;;;;;;;;;5088137;28;20040;-79
2024/01/19 03:10:38;;;;;;;7.45;3.67;;;;;;;;;;5096833;28;20076;-79
2024/01/19 03:13:04;;;;;;;4.50;2.83;;;;;;;;;;5087801;28;20029;-79
2024/01/19 03:15:30;;;;;;;7.40;3.55;;;;;;;;;;5083915;28;20035;-80
2024/01/19 03:17:56;;;;;;;6.68;3.88;;;;;;;;;;5091446;28;20032;-79
2024/01/19 03:20:22;;;;;;;5.03;3.17;;;;;;;;;;5096168;28;20011;-80
2024/01/19 03:22:48;;;;;;;8.68;3.90;;;;;;;;;;5095617;28;20094;-80
2024/01/19 03:25:15;;;;;;;7.75;4.82;;;;;;;;;;5095441;28;20047;-80
2024/01/19 03:27:41;;;;;;;6.28;4.18;;;;;;;;;;5095833;28;20021;-79
2024/01/19 03:30:07;;;;;;;7.75;4.22;;;;;;;;;;5084904;28;20013;-80
2024/01/19 03:32:33;;;;;;;6.32;3.90;;;;;;;;;;5089171;28;20035;-80
2024/01/19 03:34:59;;;;;;;9.95;4.10;;;;;;;;;;5096335;28;20020;-80
2024/01/19 03:37:27;;;;;;;7.15;3.75;;;;;;;;;;5094955;28;20016;-79
2024/01/19 03:39:53;;;;;;;7.93;4.38;;;;;;;;;;5087468;28;20028;-80
2024/01/19 03:42:19;;;;;;;10.15;5.32;;;;;;;;;;5086092;28;20077;-80
2024/01/19 03:44:45;;;;;;;9.15;5.43;;;;;;;;;;5094693;28;20040;-80
2024/01/19 03:47:11;;;;;;;11.55;5.50;;;;;;;;;;5088081;28;20017;-79
2024/01/19 03:49:37;;;;;;;6.88;4.15;;;;;;;;;;5090990;28;20025;-80
2024/01/19 03:52:08;;;;;;;14.18;5.55;;;;;;;;;;5099465;28;20062;-79
2024/01/19 03:54:35;;;;;;;10.27;5.18;;;;;;;;;;5086275;28;20012;-79
2024/01/19 03:57:03;;;;;;;12.38;4.75;;;;;;;;;;5094586;28;20017;-79
2024/01/19 03:59:30;;;;;;;10.15;4.90;;;;;;;;;;5069271;28;20137;-80
2024/01/19 04:01:56;;;;;;;8.43;4.90;;;;;;;;;;5077335;28;20036;-80
2024/01/19 04:04:26;;;;;;;5.82;3.80;;;;;;;;;;5075203;28;20039;-80
2024/01/19 04:06:52;;;;;;;10.32;5.03;;;;;;;;;;5075288;28;20027;-80
2024/01/19 04:09:18;;;;;;;11.77;4.70;;;;;;;;;;5080298;28;20563;-80
2024/01/19 04:11:45;;;;;;;8.00;4.32;;;;;;;;;;5070646;28;20141;-80
2024/01/19 04:14:11;;;;;;;8.32;4.95;;;;;;;;;;5081881;28;20081;-79
2024/01/19 04:16:38;;;;;;;7.28;4.50;;;;;;;;;;5071900;28;20541;-82
2024/01/19 04:19:04;;;;;;;9.90;5.05;;;;;;;;;;5080041;28;20098;-80
2024/01/19 04:21:31;;;;;;;9.60;5.78;;;;;;;;;;5080312;28;20375;-80
2024/01/19 04:23:57;;;;;;;12.23;5.55;;;;;;;;;;5071847;28;20135;-81
2024/01/19 04:26:24;;;;;;;17.88;6.32;;;;;;;;;;5060075;28;20033;-80
2024/01/19 04:28:50;;;;;;;9.27;5.07;;;;;;;;;;5073160;28;20028;-79
2024/01/19 04:31:16;;;;;;;10.40;5.13;;;;;;;;;;5079036;28;20078;-79
2024/01/19 04:33:42;;;;;;;10.65;5.57;;;;;;;;;;5084778;28;20117;-79
2024/01/19 04:36:09;;;;;;;8.38;5.35;;;;;;;;;;5095608;28;20016;-78
2024/01/19 04:38:35;;;;;;;7.93;4.90;;;;;;;;;;5088685;28;20050;-78
2024/01/19 04:41:01;;;;;;;12.82;5.57;;;;;;;;;;5081910;28;20029;-79
2024/01/19 04:43:27;;;;;;;18.02;6.70;;;;;;;;;;5087670;28;20097;-82
2024/01/19 04:45:53;;;;;;;13.88;5.97;;;;;;;;;;5094503;28;20044;-79
2024/01/19 04:48:19;;;;;;;11.90;5.90;;;;;;;;;;5086183;28;20024;-81
2024/01/19 04:50:46;;;;;;;14.02;6.05;;;;;;;;;;5082371;28;20029;-80
2024/01/19 04:53:12;;;;;;;10.00;5.50;;;;;;;;;;5088839;28;20039;-80
2024/01/19 04:55:38;;;;;;;8.18;5.57;;;;;;;;;;5073257;28;20052;-79
2024/01/19 04:58:04;;;;;;;10.88;5.53;;;;;;;;;;5079617;28;20035;-80
2024/01/19 05:00:30;;;;;;;14.73;6.68;;;;;;;;;;5086444;28;20184;-79
2024/01/19 05:02:56;;;;;;;17.45;6.63;;;;;;;;;;5089719;28;20033;-78
2024/01/19 05:05:22;;;;;;;9.30;5.68;;;;;;;;;;5090602;28;20032;-79
2024/01/19 05:07:48;;;;;;;6.97;4.63;;;;;;;;;;5085928;28;20083;-80
2024/01/19 05:10:14;;;;;;;9.18;4.85;;;;;;;;;;5071053;28;20024;-79
2024/01/19 05:12:40;;;;;;;8.98;4.80;;;;;;;;;;5080276;28;20131;-80
2024/01/19 05:15:07;;;;;;;10.15;5.90;;;;;;;;;;5072986;28;20029;-79
2024/01/19 05:17:33;;;;;;;6.70;4.82;;;;;;;;;;5081219;28;20040;-79
2024/01/19 05:19:59;;;;;;;6.68;4.25;;;;;;;;;;5072480;28;20024;-79
2024/01/19 05:22:25;;;;;;;9.07;4.32;;;;;;;;;;5073300;28;20052;-81
2024/01/19 05:24:51;;;;;;;11.90;7.00;;;;;;;;;;5081296;28;20032;-78
2024/01/19 05:27:17;;;;;;;8.45;5.82;;;;;;;;;;5071037;28;20064;-79
2024/01/19 05:29:43;;;;;;;10.25;5.57;;;;;;;;;;5069403;28;20490;-78
2024/01/19 05:32:10;;;;;;;9.32;5.13;;;;;;;;;;5081440;28;20475;-78
2024/01/19 05:34:36;;;;;;;9.32;5.22;;;;;;;;;;5084675;28;20019;-78
2024/01/19 05:37:02;;;;;;;10.98;5.43;;;;;;;;;;5071168;28;20070;-79
2024/01/19 05:39:28;;;;;;;10.35;5.43;;;;;;;;;;5081240;28;20040;-79
2024/01/19 05:41:54;;;;;;;6.60;4.22;;;;;;;;;;5070674;28;20088;-78
2024/01/19 05:44:20;;;;;;;9.77;5.47;;;;;;;;;;5072143;28;20040;-79
2024/01/19 05:46:46;;;;;;;11.38;6.65;;;;;;;;;;5075465;28;20033;-79
2024/01/19 05:49:12;;;;;;;10.13;5.35;;;;;;;;;;5078353;28;20028;-79
2024/01/19 05:51:38;;;;;;;11.48;5.65;;;;;;;;;;5081011;28;20029;-78
2024/01/19 05:54:04;;;;;;;13.45;6.60;;;;;;;;;;5083795;28;20099;-77
2024/01/19 05:56:30;;;;;;;13.05;6.75;;;;;;;;;;5089607;28;20137;-77
2024/01/19 05:58:56;;;;;;;12.32;6.30;;;;;;;;;;5091787;28;20483;-79
2024/01/19 06:01:23;;;;;;;12.57;6.55;;;;;;;;;;5082019;28;20031;-79
2024/01/19 06:03:49;;;;;;;14.90;7.55;;;;;;;;;;5075600;28;20031;-79
2024/01/19 06:06:15;;;;;;;12.10;6.57;;;;;;;;;;5079282;28;20040;-79
2024/01/19 06:08:41;;;;;;;11.90;6.30;;;;;;;;;;5079116;28;20029;-79
2024/01/19 06:11:07;;;;;;;9.98;6.13;;;;;;;;;;5079655;28;20033;-78
2024/01/19 06:13:33;;;;;;;10.65;6.40;;;;;;;;;;5063040;28;20028;-78
2024/01/19 06:16:01;;;;;;;13.93;7.22;;;;;;;;;;5081405;28;20085;-79
2024/01/19 06:18:27;;;;;;;13.80;6.82;;;;;;;;;;5081021;28;20077;-79
2024/01/19 06:20:54;;;;;;;9.88;6.20;;;;;;;;;;5085397;28;20363;-78
2024/01/19 06:23:21;;;;;;;10.85;7.10;;;;;;;;;;5082828;28;20046;-79
2024/01/19 06:25:47;;;;;;;13.68;7.70;;;;;;;;;;5087006;28;20067;-79
2024/01/19 06:28:13;;;;;;;13.15;6.78;;;;;;;;;;5095843;28;20111;-78
2024/01/19 06:30:42;;;;;;;16.05;7.57;;;;;;;;;;5096100;28;20024;-78
2024/01/19 06:33:08;;;;;;;16.50;7.07;;;;;;;;;;5095794;28;20052;-78
2024/01/19 06:35:35;;;;;;;12.38;7.25;;;;;;;;;;5094386;28;20027;-77
2024/01/19 06:38:01;;;;;;;14.68;6.63;;;;;;;;;;5091059;28;20032;-77
2024/01/19 06:40:27;;;;;;;13.35;7.25;;;;;;;;;;5093732;28;20042;-78
2024/01/19 06:42:53;;;;;;;11.95;6.57;;;;;;;;;;5077442;28;20082;-78
2024/01/19 06:45:19;;;;;;;13.23;6.78;;;;;;;;;;5085549;28;20111;-78
2024/01/19 06:47:45;;;;;;;12.60;7.63;;;;;;;;;;5073687;28;20032;-77
2024/01/19 06:50:11;;;;;;;16.73;7.53;;;;;;;;;;5088415;28;20437;-78
2024/01/19 06:52:37;;;;;;;12.90;7.13;;;;;;;;;;5077964;28;20472;-77
2024/01/19 06:55:08;;;;;;;12.85;5.40;;;;;;;;;;5082367;28;20016;-76
2024/01/19 06:57:34;;;;;;;12.95;6.55;;;;;;;;;;5085135;28;20012;-77
2024/01/19 07:00:00;;;;;;;14.68;6.70;;;;;;;;;;5094202;28;20044;-78
2024/01/19 07:02:26;;;;;;;13.07;6.72;;;;;;;;;;5088269;28;20012;-80
2024/01/19 07:04:52;;;;;;;14.13;6.53;;;;;;;;;;5077938;28;20051;-80
2024/01/19 07:07:19;;;;;;;12.25;5.75;;;;;;;;;;5069776;28;20100;-77
2024/01/19 07:09:45;;;;;;;11.23;6.60;;;;;;;;;;5076989;28;20070;-78
2024/01/19 07:12:12;;;;;;;14.43;6.22;;;;;;;;;;5061046;28;20476;-77
2024/01/19 07:14:38;;;;;;;10.38;6.10;;;;;;;;;;5078395;28;20035;-79
2024/01/19 07:17:04;;;;;;;11.68;6.18;;;;;;;;;;5078868;28;20017;-79
2024/01/19 07:19:30;;;;;;;12.15;6.38;;;;;;;;;;5069917;28;20039;-77
2024/01/19 07:21:56;;;;;;;12.38;6.85;;;;;;;;;;5067728;28;20081;-78
2024/01/19 07:24:22;;;;;;;11.75;5.95;;;;;;;;;;5069194;28;20035;-77
2024/01/19 07:26:49;;;;;;;14.43;6.53;;;;;;;;;;5080471;28;20035;-78
2024/01/19 07:29:15;;;;;;;14.45;6.13;;;;;;;;;;5080513;28;20040;-77
2024/01/19 07:31:41;;;;;;;11.77;6.10;;;;;;;;;;5080432;28;20024;-80
2024/01/19 07:34:07;;;;;;;12.27;6.18;;;;;;;;;;5077776;28;20029;-76
2024/01/19 07:36:33;;;;;;;14.60;6.15;;;;;;;;;;5077397;28;20343;-79
2024/01/19 07:38:59;;;;;;;11.90;6.00;;;;;;;;;;5086581;28;20698;-78
2024/01/19 07:41:25;;;;;;;10.45;5.68;;;;;;;;;;5074576;28;20693;-77
2024/01/19 07:43:51;;;;;;;10.48;5.13;;;;;;;;;;5086157;28;20361;-77
2024/01/19 07:46:19;;;;;;;8.45;4.97;;;;;;;;;;5081755;28;20044;-76
2024/01/19 07:48:45;;;;;;;6.60;4.70;;;;;;;;;;5089996;28;20405;-81
2024/01/19 07:51:11;;;;;;;13.35;4.78;;;;;;;;;;5078200;28;20054;-77
2024/01/19 07:53:37;;;;;;;11.18;4.90;;;;;;;;;;5077569;28;20040;-77
2024/01/19 07:56:03;;;;;;;8.25;4.85;;;;;;;;;;5091686;28;20026;-77
2024/01/19 07:58:29;;;;;;;6.45;4.13;;;;;;;;;;5080627;28;20033;-77
2024/01/19 08:00:55;;;;;;;9.77;5.18;;;;;;;;;;5076808;28;20515;-76
2024/01/19 08:03:22;;;;;;;12.02;6.40;;;;;;;;;;5089716;28;20078;-75
2024/01/19 08:05:48;;;;;;;10.70;5.68;;;;;;;;;;5088587;28;20071;-77
2024/01/19 08:08:15;;;;;;;8.65;4.68;;;;;;;;;;5076741;28;20074;-77
2024/01/19 08:10:41;;;;;;;9.60;5.40;;;;;;;;;;5090092;28;20032;-77
2024/01/19 08:13:07;;;;;;;9.75;5.65;;;;;;;;;;5082845;28;20403;-79
2024/01/19 08:15:33;;;;;;;9.05;5.40;;;;;;;;;;5073642;28;20013;-77
2024/01/19 08:17:59;;;;;;;7.22;5.13;;;;;;;;;;5064274;28;20359;-77
2024/01/19 08:20:25;;;;;;;11.55;5.10;;;;;;;;;;5074834;28;20100;-77
2024/01/19 08:22:55;;;;;;;13.27;6.95;;;;;;;;;;5074536;28;20116;-77
2024/01/19 08:25:21;;;;;;;12.38;5.82;;;;;;;;;;5076887;28;20016;-76
2024/01/19 08:27:48;;;;;;;12.45;5.40;;;;;;;;;;5069448;28;20068;-77
2024/01/19 08:30:15;;;;;;;13.30;6.18;;;;;;;;;;5069132;28;20040;-77
2024/01/19 08:32:41;;;;;;;11.50;5.38;;;;;;;;;;5076086;28;20488;-79
2024/01/19 08:35:10;;;;;;;12.45;6.03;;;;;;;;;;5073108;28;20028;-77
2024/01/19 08:37:39;;;;;;;10.25;5.28;;;;;;;;;;5075188;28;20059;-76
2024/01/19 08:40:08;;;;;;;11.70;4.95;;;;;;;;;;5091684;28;20016;-77
2024/01/19 08:42:35;;;;;;;13.25;6.28;;;;;;;;;;5084834;28;20029;-76
2024/01/19 08:45:02;;;;;;;16.50;6.05;;;;;;;;;;5080455;28;20036;-76
2024/01/19 08:47:28;;;;;;;12.95;6.97;;;;;;;;;;5077465;28;20038;-75
2024/01/19 08:49:54;;;;;;;12.18;6.97;;;;;;;;;;5093725;28;20035;-76
2024/01/19 08:52:20;;;;;;;12.65;7.38;;;;;;;;;;5084214;28;20475;-77
2024/01/19 08:54:46;;;;;;;12.68;6.40;;;;;;;;;;5070061;28;20032;-76
2024/01/19 08:57:12;;;;;;;11.13;6.80;;;;;;;;;;5083434;28;20109;-77
2024/01/19 08:59:39;;;;;;;15.43;6.93;;;;;;;;;;5080125;28;20608;-77
2024/01/19 09:02:05;;;;;;;9.00;5.93;;;;;;;;;;5092713;28;20027;-78
2024/01/19 09:04:34;;;;;;;12.52;5.60;;;;;;;;;;5080477;28;20029;-77
2024/01/19 09:07:00;;;;;;;13.32;6.93;;;;;;;;;;5077639;28;20021;-77
2024/01/19 09:09:27;;;;;;;13.27;6.45;;;;;;;;;;5076152;28;20050;-77
2024/01/19 09:11:53;;;;;;;11.10;6.63;;;;;;;;;;5074564;28;20191;-77
2024/01/19 09:14:20;;;;;;;15.40;7.18;;;;;;;;;;5072401;28;20078;-77
2024/01/19 09:16:46;;;;;;;14.30;7.18;;;;;;;;;;5068841;28;20491;-76
2024/01/19 09:19:13;;;;;;;13.75;7.57;;;;;;;;;;5059306;28;20028;-77
2024/01/19 09:21:45;;;;;;;14.15;6.47;;;;;;;;;;5072256;28;20024;-77
2024/01/19 09:24:14;;;;;;;10.25;6.22;;;;;;;;;;5073855;28;20071;-77
2024/01/19 09:26:40;;;;;;;9.60;5.82;;;;;;;;;;5081058;28;20082;-78
2024/01/19 09:29:08;;;;;;;10.55;5.03;;;;;;;;;;5073389;28;20035;-77
2024/01/19 09:31:41;;;;;;;8.07;4.78;;;;;;;;;;5071619;28;20024;-76
2024/01/19 09:34:07;;;;;;;8.20;5.18;;;;;;;;;;5060632;28;20468;-76
2024/01/19 09:36:33;;;;;;;14.57;6.78;;;;;;;;;;5082795;28;20016;-76
2024/01/19 09:39:00;;;;;;;10.68;5.80;;;;;;;;;;5085245;28;20092;-77
2024/01/19 09:41:26;;;;;;;10.52;6.18;;;;;;;;;;5082860;28;20021;-76
2024/01/19 09:43:55;;;;;;;9.50;6.07;;;;;;;;;;5101558;28;20013;-78
2024/01/19 09:46:26;;;;;;;8.57;5.15;;;;;;;;;;5089331;28;20028;-77
2024/01/19 09:49:11;;;;;;;6.60;4.50;;;;;;;;;;5071722;28;20038;-77
2024/01/19 09:52:07;;;;;;;6.45;4.63;;;;;;;;;;5074681;28;20393;-77
2024/01/19 09:54:34;;;;;;;6.63;3.90;;;;;;;;;;5072226;28;20033;-77
2024/01/19 09:57:00;;;;;;;6.55;4.13;;;;;;;;;;5083400;28;20035;-77
2024/01/19 09:59:31;;;;;;;9.40;5.82;;;;;;;;;;5084604;28;20031;-77
2024/01/19 10:01:57;;;;;;;9.65;6.70;;;;;;;;;;5071745;28;20044;-76
2024/01/19 10:04:24;;;;;;;11.73;6.82;;;;;;;;;;5067645;28;20069;-77
2024/01/19 10:06:51;;;;;;;13.90;8.60;;;;;;;;;;5084375;28;20165;-77
2024/01/19 10:09:20;;;;;;;10.77;6.55;;;;;;;;;;5081200;28;20024;-77
2024/01/19 10:11:51;;;;;;;10.60;6.57;;;;;;;;;;5091316;28;20466;-77
2024/01/19 10:14:20;;;;;;;12.02;6.85;;;;;;;;;;5094626;28;20028;-76
2024/01/19 10:16:50;;;;;;;12.43;6.72;;;;;;;;;;5083962;28;20017;-76
2024/01/19 10:19:16;;;;;;;11.63;7.30;;;;;;;;;;5096961;28;20028;-76
2024/01/19 10:21:43;;;;;;;13.93;7.82;;;;;;;;;;5082336;28;20029;-75
2024/01/19 10:24:19;;;;;;;8.65;5.63;;;;;;;;;;5057253;28;20017;-76
2024/01/19 10:26:55;;;;;;;13.68;7.43;;;;;;;;;;5098950;28;20016;-76
2024/01/19 10:29:22;;;;;;;15.52;7.03;;;;;;;;;;5076272;28;20033;-77
2024/01/19 10:31:49;;;;;;;10.05;6.53;;;;;;;;;;5081788;28;20032;-77
2024/01/19 10:34:22;;;;;;;9.23;5.22;;;;;;;;;;5101516;28;20035;-75
2024/01/19 10:36:49;;;;;;;8.70;5.05;;;;;;;;;;5094369;28;20021;-76
2024/01/19 10:39:15;;;;;;;8.40;6.13;;;;;;;;;;5094127;28;20104;-77
2024/01/19 10:41:42;;;;;;;8.27;5.15;;;;;;;;;;5087558;28;20134;-77
2024/01/19 10:44:12;;;;;;;8.98;5.50;;;;;;;;;;5093437;28;20039;-75
2024/01/19 10:46:38;;;;;;;12.68;6.20;;;;;;;;;;5084254;28;20031;-77
2024/01/19 10:49:05;;;;;;;11.68;6.68;;;;;;;;;;5094988;28;20086;-78
2024/01/19 10:51:33;;;;;;;9.75;6.35;;;;;;;;;;5092989;28;20028;-77
2024/01/19 10:54:05;;;;;;;9.13;6.00;;;;;;;;;;5089975;28;20398;-78
2024/01/19 10:56:31;;;;;;;11.77;6.57;;;;;;;;;;5080661;28;20055;-77
2024/01/19 10:59:11;;;;;;;9.73;5.78;;;;;;;;;;5078521;28;20043;-77
2024/01/19 11:01:37;;;;;;;12.15;6.57;;;;;;;;;;5088485;28;20035;-77
2024/01/19 11:04:05;;;;;;;14.27;6.60;;;;;;;;;;5088840;28;20029;-77
2024/01/19 11:06:31;;;;;;;13.23;7.22;;;;;;;;;;5089235;28;20036;-76
2024/01/19 11:08:58;;;;;;;12.63;6.72;;;;;;;;;;5075052;28;20093;-77
2024/01/19 11:11:26;;;;;;;14.63;8.35;;;;;;;;;;5079134;28;20036;-77
2024/01/19 11:13:54;;;;;;;13.90;7.80;;;;;;;;;;5075914;28;20036;-77
2024/01/19 11:16:23;;;;;;;12.05;6.78;;;;;;;;;;5079857;28;20112;-79
2024/01/19 11:18:50;;;;;;;11.32;6.88;;;;;;;;;;5079082;28;20028;-77
2024/01/19 11:21:16;;;;;;;10.48;6.30;;;;;;;;;;5085200;28;20074;-77
2024/01/19 11:23:42;;;;;;;9.48;6.55;;;;;;;;;;5087624;28;20024;-76
2024/01/19 11:26:23;;;;;;;12.77;6.82;;;;;;;;;;5092183;28;20039;-77
2024/01/19 11:28:55;;;;;;;14.30;8.25;;;;;;;;;;5071766;28;20029;-78
2024/01/19 11:31:41;;;;;;;10.75;6.60;;;;;;;;;;5062227;28;20029;-76
2024/01/19 11:34:07;;;;;;;14.88;8.38;;;;;;;;;;5079648;28;20081;-78
2024/01/19 11:36:38;;;;;;;19.55;9.77;;;;;;;;;;5080575;28;20033;-77
2024/01/19 11:39:05;;;;;;;16.67;8.68;;;;;;;;;;5067635;28;20066;-76
2024/01/19 11:41:34;;;;;;;16.80;9.73;;;;;;;;;;5076583;28;20033;-78
2024/01/19 11:44:05;;;;;;;18.00;9.25;;;;;;;;;;5084794;28;20032;-78
2024/01/19 11:46:40;;;;;;;15.88;9.30;;;;;;;;;;5075325;28;20436;-77
2024/01/19 11:49:06;;;;;;;20.13;10.38;;;;;;;;;;5074041;28;20394;-76
2024/01/19 11:51:34;;;;;;;16.45;9.82;;;;;;;;;;5078465;28;20032;-75
2024/01/19 11:54:03;;;;;;;18.50;11.00;;;;;;;;;;5076805;28;20376;-76
2024/01/19 11:56:30;;;;;;;19.65;10.32;;;;;;;;;;5074527;28;20017;-76
2024/01/19 11:58:57;;;;;;;16.60;10.25;;;;;;;;;;5080282;28;20021;-76
2024/01/19 12:01:23;;;;;;;19.33;11.57;;;;;;;;;;5083339;28;20081;-77
2024/01/19 12:03:54;;;;;;;19.52;10.45;;;;;;;;;;5084917;28;20410;-76
2024/01/19 12:06:20;;;;;;;18.95;10.43;;;;;;;;;;5079012;28;20432;-75
2024/01/19 12:09:05;;;;;;;21.60;10.27;;;;;;;;;;5078293;28;20039;-76
2024/01/19 12:11:32;;;;;;;23.88;11.23;;;;;;;;;;5083157;28;20433;-77
2024/01/19 12:14:03;;;;;;;18.85;10.77;;;;;;;;;;5079449;28;20028;-76
2024/01/19 12:16:30;;;;;;;17.98;11.30;;;;;;;;;;5076812;28;20552;-77
2024/01/19 12:18:57;;;;;;;19.85;11.13;;;;;;;;;;5078626;28;20085;-76
2024/01/19 12:21:24;;;;;;;16.80;10.00;;;;;;;;;;5065451;28;20032;-77
2024/01/19 12:23:59;;;;;;;17.23;10.02;;;;;;;;;;5076238;28;20025;-76
2024/01/19 12:26:28;;;;;;;17.63;10.63;;;;;;;;;;5077056;28;20024;-78
2024/01/19 12:28:56;;;;;;;17.17;10.93;;;;;;;;;;5081559;28;21366;-76
2024/01/19 12:31:37;;;;;;;19.95;10.18;;;;;;;;;;5087683;28;20060;-78
2024/01/19 12:34:13;;;;;;;15.13;8.70;;;;;;;;;;5073269;28;20028;-78
2024/01/19 12:36:39;;;;;;;11.82;7.53;;;;;;;;;;5080985;28;20028;-77
2024/01/19 12:39:10;;;;;;;11.27;7.35;;;;;;;;;;5082414;28;20032;-80
2024/01/19 12:41:37;;;;;;;13.07;7.63;;;;;;;;;;5090973;28;20410;-78
2024/01/19 12:44:03;;;;;;;13.80;7.78;;;;;;;;;;5086389;28;20436;-78
2024/01/19 12:46:29;;;;;;;11.55;7.28;;;;;;;;;;5095307;28;20028;-77
2024/01/19 12:49:00;;;;;;;12.68;7.22;;;;;;;;;;5088612;28;20403;-78
2024/01/19 12:51:29;;;;;;;14.25;8.52;;;;;;;;;;5092536;28;20024;-78
2024/01/19 12:53:56;;;;;;;13.63;8.48;;;;;;;;;;5085590;28;20066;-79
2024/01/19 12:56:25;;;;;;;15.00;9.13;;;;;;;;;;5094433;28;20088;-78
2024/01/19 12:58:52;;;;;;;16.20;9.00;;;;;;;;;;5095992;28;20028;-78
2024/01/19 13:01:20;;;;;;;13.57;8.05;;;;;;;;;;5088697;28;20021;-77
2024/01/19 13:03:50;;;;;;;17.05;9.15;;;;;;;;;;5082373;28;20032;-77
2024/01/19 13:06:16;;;;;;;16.25;8.52;;;;;;;;;;5088466;28;20025;-77
2024/01/19 13:08:46;;;;;;;15.52;7.65;;;;;;;;;;5090822;28;20046;-75
2024/01/19 13:11:13;;;;;;;14.10;8.15;;;;;;;;;;5089680;28;20012;-78
2024/01/19 13:13:40;;;;;;;15.52;8.02;;;;;;;;;;5077019;28;20089;-78
2024/01/19 13:16:08;;;;;;;13.85;6.93;;;;;;;;;;5082363;28;20028;-77
2024/01/19 13:18:35;;;;;;;12.52;6.75;;;;;;;;;;5085025;28;20116;-77
2024/01/19 13:21:14;;;;;;;15.05;8.27;;;;;;;;;;5072388;28;20027;-77
2024/01/19 13:23:45;;;;;;;12.57;8.13;;;;;;;;;;5078276;28;20087;-78
2024/01/19 13:26:19;;;;;;;12.07;7.15;;;;;;;;;;5079201;28;20062;-77
2024/01/19 13:28:45;;;;;;;12.27;7.50;;;;;;;;;;5058396;28;20028;-77
2024/01/19 13:31:11;;;;;;;19.00;9.23;;;;;;;;;;5080543;28;20033;-76
2024/01/19 13:33:47;;;;;;;19.13;9.10;;;;;;;;;;5081213;28;20041;-75
2024/01/19 13:36:13;;;;;;;13.60;9.13;;;;;;;;;;5076514;28;20027;-76
2024/01/19 13:38:40;;;;;;;15.48;8.40;;;;;;;;;;5081248;28;20028;-75
2024/01/19 13:41:07;;;;;;;15.73;8.13;;;;;;;;;;5073823;28;20063;-76
2024/01/19 13:43:34;;;;;;;18.42;8.70;;;;;;;;;;5078678;28;20447;-76
2024/01/19 13:46:01;;;;;;;14.43;8.15;;;;;;;;;;5080062;28;20047;-76
2024/01/19 13:48:27;;;;;;;13.25;7.32;;;;;;;;;;5081464;28;20121;-77
2024/01/19 13:50:53;;;;;;;11.73;6.78;;;;;;;;;;5077361;28;20160;-75
2024/01/19 13:53:19;;;;;;;15.80;9.07;;;;;;;;;;5084700;28;20029;-77
2024/01/19 13:55:45;;;;;;;15.90;9.45;;;;;;;;;;5086673;28;20031;-77
2024/01/19 13:58:11;;;;;;;16.33;9.05;;;;;;;;;;5080506;28;20492;-77
2024/01/19 14:00:38;;;;;;;20.73;10.20;;;;;;;;;;5080731;28;20088;-77
2024/01/19 14:03:05;;;;;;;17.92;10.50;;;;;;;;;;5086927;28;20035;-76
2024/01/19 14:05:31;;;;;;;19.88;10.30;;;;;;;;;;5069763;28;20044;-77
2024/01/19 14:07:58;;;;;;;19.77;10.52;;;;;;;;;;5069866;28;20441;-77
2024/01/19 14:10:24;;;;;;;15.75;9.27;;;;;;;;;;5089263;28;20021;-77
2024/01/19 14:12:50;;;;;;;14.00;8.98;;;;;;;;;;5063187;28;20043;-78
2024/01/19 14:15:18;;;;;;;20.55;10.25;;;;;;;;;;5081329;28;20033;-76
2024/01/19 14:17:44;;;;;;;19.98;10.43;;;;;;;;;;5078884;28;20032;-77
2024/01/19 14:20:11;;;;;;;20.58;10.85;;;;;;;;;;5073232;28;20074;-77
2024/01/19 14:22:38;;;;;;;18.20;10.18;;;;;;;;;;5082269;28;20032;-78
2024/01/19 14:25:06;;;;;;;14.15;8.73;;;;;;;;;;5071810;28;20025;-76
2024/01/19 14:27:33;;;;;;;17.42;8.98;;;;;;;;;;5076539;28;20173;-77
2024/01/19 14:30:00;;;;;;;16.50;9.88;;;;;;;;;;5073618;28;20017;-76
2024/01/19 14:32:27;;;;;;;18.23;10.73;;;;;;;;;;5081130;28;20070;-79